Time;durP1;ratioP1;P1;durP2;ratioP2;P2;SDS_P1;SDS_P2;PMS_P1;PMS_P2;Temp;Humidity;BMP_temperature;BMP_pressure;BME280_temperature;BME280_humidity;BME280_pressure;Samples;Min_cycle;Max_cycle;Signal;HPM_P1;HPM_P2
2024/02/26 00:01:43;;;;;;;9.48;5.32;;;6.30;84.00;;;;;;9185010;19;20046;-66
2024/02/26 00:04:49;;;;;;;8.07;5.43;;;6.30;84.10;;;;;;9184088;19;20364;-66
2024/02/26 00:07:57;;;;;;;11.95;6.28;;;6.30;84.00;;;;;;9183300;19;20014;-66
2024/02/26 00:11:05;;;;;;;6.60;5.38;;;6.20;84.00;;;;;;9182435;19;20523;-66
2024/02/26 00:14:12;;;;;;;6.30;5.07;;;6.20;84.10;;;;;;9182883;19;20015;-66
2024/02/26 00:17:20;;;;;;;10.32;5.95;;;6.20;84.10;;;;;;9182973;19;20014;-66
2024/02/26 00:20:28;;;;;;;8.65;5.72;;;6.20;84.20;;;;;;9181216;19;20022;-66
2024/02/26 00:23:33;;;;;;;10.95;5.30;;;6.10;84.10;;;;;;9182334;19;20018;-66
2024/02/26 00:26:41;;;;;;;7.40;5.60;;;6.20;84.20;;;;;;9179816;19;20015;-66
2024/02/26 00:29:47;;;;;;;8.73;5.63;;;6.20;84.20;;;;;;9181030;19;20011;-66
2024/02/26 00:32:57;;;;;;;8.65;5.88;;;6.20;84.20;;;;;;9182015;19;20021;-66
2024/02/26 00:36:02;;;;;;;7.50;5.53;;;6.20;84.20;;;;;;9180680;19;20043;-66
2024/02/26 00:39:10;;;;;;;10.40;5.35;;;6.10;84.10;;;;;;9181360;19;20018;-66
2024/02/26 00:42:16;;;;;;;10.15;5.88;;;6.10;84.10;;;;;;9180872;19;20471;-66
2024/02/26 00:45:23;;;;;;;8.10;5.32;;;6.10;84.20;;;;;;9179938;19;20025;-66
2024/02/26 00:48:33;;;;;;;8.65;5.57;;;6.10;84.10;;;;;;9181571;19;20487;-66
2024/02/26 00:51:40;;;;;;;8.98;5.68;;;6.10;84.20;;;;;;9180637;19;20025;-66
2024/02/26 00:54:46;;;;;;;8.63;5.97;;;6.10;84.10;;;;;;9180219;19;20011;-66
2024/02/26 00:57:53;;;;;;;10.07;5.65;;;6.10;84.10;;;;;;9174821;19;20014;-66
2024/02/26 01:00:59;;;;;;;6.45;4.80;;;6.10;84.10;;;;;;9180845;19;20017;-66
2024/02/26 01:04:09;;;;;;;9.48;5.40;;;6.10;84.10;;;;;;9180645;19;20043;-66
2024/02/26 01:07:15;;;;;;;12.73;5.85;;;6.00;84.10;;;;;;9178384;19;20010;-66
2024/02/26 01:10:23;;;;;;;13.30;5.22;;;6.00;84.10;;;;;;9180420;19;20026;-66
2024/02/26 01:13:29;;;;;;;9.85;5.78;;;6.00;84.10;;;;;;9179754;19;20018;-66
2024/02/26 01:16:37;;;;;;;8.32;5.65;;;6.00;84.10;;;;;;9180942;19;20040;-66
2024/02/26 01:19:45;;;;;;;9.48;6.13;;;6.00;84.10;;;;;;9180024;19;20033;-66
2024/02/26 01:22:52;;;;;;;9.75;6.28;;;6.00;84.10;;;;;;9179653;19;20015;-66
2024/02/26 01:25:59;;;;;;;8.00;5.80;;;5.90;84.00;;;;;;9178043;19;20015;-66
2024/02/26 01:29:06;;;;;;;11.30;6.35;;;5.90;84.10;;;;;;9179783;19;20376;-66
2024/02/26 01:32:12;;;;;;;9.93;6.05;;;5.90;84.10;;;;;;9179902;19;20470;-66
2024/02/26 01:35:22;;;;;;;8.70;5.53;;;5.90;84.20;;;;;;9178525;19;20015;-66
2024/02/26 01:38:28;;;;;;;11.07;5.57;;;5.90;84.10;;;;;;9177552;19;20086;-66
2024/02/26 01:41:35;;;;;;;11.63;5.60;;;5.80;84.00;;;;;;9177748;19;20028;-66
2024/02/26 01:44:42;;;;;;;9.98;6.07;;;5.80;84.10;;;;;;9177655;19;20015;-66
2024/02/26 01:47:51;;;;;;;7.50;5.72;;;5.80;84.10;;;;;;9179590;19;20007;-66
2024/02/26 01:50:59;;;;;;;11.57;5.63;;;5.80;84.10;;;;;;9178413;19;20733;-66
2024/02/26 01:54:07;;;;;;;9.88;5.75;;;5.80;84.20;;;;;;9178233;19;20022;-66
2024/02/26 01:57:14;;;;;;;7.22;5.70;;;5.70;84.20;;;;;;9174848;19;20090;-66
2024/02/26 02:00:23;;;;;;;8.57;5.75;;;5.70;84.20;;;;;;9178117;19;20025;-66
2024/02/26 02:03:29;;;;;;;10.30;5.20;;;5.70;84.20;;;;;;9178366;19;20080;-66
2024/02/26 02:06:40;;;;;;;8.73;5.50;;;5.70;84.20;;;;;;9176604;19;20018;-66
2024/02/26 02:09:46;;;;;;;9.32;5.18;;;5.60;84.20;;;;;;9178909;19;20066;-66
2024/02/26 02:12:54;;;;;;;8.73;5.78;;;5.60;84.80;;;;;;9178113;19;20033;-66
2024/02/26 02:16:00;;;;;;;10.30;5.72;;;5.60;84.20;;;;;;9177097;19;20025;-66
2024/02/26 02:19:07;;;;;;;8.90;5.57;;;5.60;84.30;;;;;;9176002;19;20033;-66
2024/02/26 02:22:16;;;;;;;10.50;5.97;;;5.60;84.30;;;;;;9177732;19;20029;-67
2024/02/26 02:25:23;;;;;;;8.07;5.95;;;5.60;84.30;;;;;;9177292;19;20465;-66
2024/02/26 02:28:30;;;;;;;8.75;5.53;;;5.60;84.30;;;;;;9175783;19;20014;-66
2024/02/26 02:31:37;;;;;;;8.65;5.90;;;5.60;84.30;;;;;;9176134;19;20799;-66
2024/02/26 02:34:44;;;;;;;10.23;6.00;;;5.60;84.40;;;;;;9177054;19;20011;-66
2024/02/26 02:37:55;;;;;;;8.82;5.80;;;5.60;84.40;;;;;;9174818;19;21547;-66
2024/02/26 02:41:01;;;;;;;13.68;5.97;;;5.60;84.50;;;;;;9176665;19;20011;-66
2024/02/26 02:44:09;;;;;;;10.15;5.78;;;5.60;84.40;;;;;;9176360;19;20597;-66
2024/02/26 02:47:14;;;;;;;9.80;5.97;;;5.60;84.40;;;;;;9175048;19;20429;-65
2024/02/26 02:50:22;;;;;;;8.40;5.60;;;5.60;84.40;;;;;;9176612;19;20014;-66
2024/02/26 02:53:30;;;;;;;8.88;5.68;;;5.60;84.50;;;;;;9185703;19;20014;-66
2024/02/26 02:56:38;;;;;;;9.90;6.40;;;5.60;84.40;;;;;;9182383;19;20018;-67
2024/02/26 02:59:43;;;;;;;10.98;6.10;;;5.60;84.50;;;;;;9183744;19;20018;-66
2024/02/26 03:02:51;;;;;;;9.68;5.85;;;5.60;84.40;;;;;;9185817;19;20011;-66
2024/02/26 03:05:57;;;;;;;8.73;5.47;;;5.60;84.40;;;;;;9184168;19;20684;-66
2024/02/26 03:09:08;;;;;;;8.88;5.97;;;5.60;84.40;;;;;;9185826;19;20015;-66
2024/02/26 03:12:13;;;;;;;8.90;5.57;;;5.60;84.40;;;;;;9185018;19;20378;-66
2024/02/26 03:15:21;;;;;;;10.20;5.47;;;5.60;84.40;;;;;;9184293;19;20034;-66
2024/02/26 03:18:26;;;;;;;8.50;5.28;;;5.60;84.40;;;;;;9185598;19;20022;-66
2024/02/26 03:21:34;;;;;;;9.68;6.78;;;5.60;84.40;;;;;;9184953;19;20011;-66
2024/02/26 03:24:42;;;;;;;9.95;5.80;;;5.60;84.40;;;;;;9184307;19;20015;-66
2024/02/26 03:27:50;;;;;;;9.38;5.38;;;5.60;84.40;;;;;;9181279;19;20018;-66
2024/02/26 03:30:55;;;;;;;8.18;5.53;;;5.60;84.50;;;;;;9184245;19;20046;-66
2024/02/26 03:34:03;;;;;;;9.30;5.90;;;5.60;84.50;;;;;;9185167;19;20029;-66
2024/02/26 03:37:10;;;;;;;9.27;5.47;;;5.60;85.10;;;;;;9182962;19;20028;-66
2024/02/26 03:40:20;;;;;;;8.75;5.20;;;5.60;84.40;;;;;;9183877;19;20011;-66
2024/02/26 03:43:26;;;;;;;7.72;5.10;;;5.60;84.50;;;;;;9183893;19;20569;-66
2024/02/26 03:46:33;;;;;;;7.57;4.85;;;5.60;84.50;;;;;;9181623;19;20475;-66
2024/02/26 03:49:39;;;;;;;6.22;4.47;;;5.60;84.50;;;;;;9183686;19;20407;-67
2024/02/26 03:52:47;;;;;;;12.30;5.00;;;5.60;84.50;;;;;;9183789;19;20360;-66
2024/02/26 03:55:56;;;;;;;6.35;4.57;;;5.60;84.50;;;;;;9177289;19;20014;-67
2024/02/26 03:59:03;;;;;;;9.23;4.43;;;5.60;84.50;;;;;;9182318;19;20019;-67
2024/02/26 04:02:09;;;;;;;8.95;4.80;;;5.60;84.50;;;;;;9182008;19;20102;-67
2024/02/26 04:05:17;;;;;;;7.53;4.55;;;5.60;84.60;;;;;;9181585;19;20517;-67
2024/02/26 04:08:22;;;;;;;7.53;4.25;;;5.60;84.60;;;;;;9179733;19;20492;-67
2024/02/26 04:11:33;;;;;;;10.00;4.90;;;5.60;84.60;;;;;;9183308;19;20018;-67
2024/02/26 04:14:38;;;;;;;6.78;4.80;;;5.60;84.60;;;;;;9181436;19;20018;-67
2024/02/26 04:17:46;;;;;;;7.57;4.45;;;5.70;84.70;;;;;;9182443;19;20011;-66
2024/02/26 04:20:52;;;;;;;5.97;3.97;;;5.70;84.70;;;;;;9181938;19;20051;-67
2024/02/26 04:24:01;;;;;;;6.80;4.32;;;5.70;84.70;;;;;;9182265;19;20475;-67
2024/02/26 04:27:09;;;;;;;8.23;4.85;;;5.70;84.70;;;;;;9181183;19;20011;-66
2024/02/26 04:30:17;;;;;;;6.72;4.68;;;5.70;84.60;;;;;;9180502;19;20022;-66
2024/02/26 04:33:23;;;;;;;11.25;4.97;;;5.70;84.60;;;;;;9182134;19;20006;-66
2024/02/26 04:36:31;;;;;;;6.63;4.40;;;5.70;84.60;;;;;;9181806;19;20023;-66
2024/02/26 04:39:36;;;;;;;8.65;5.60;;;5.70;84.60;;;;;;9181193;19;20011;-66
2024/02/26 04:42:47;;;;;;;10.40;5.18;;;5.80;84.70;;;;;;9181517;19;20020;-66
2024/02/26 04:45:52;;;;;;;11.15;5.72;;;5.70;84.70;;;;;;9181301;19;20018;-67
2024/02/26 04:49:00;;;;;;;8.52;5.63;;;5.70;84.70;;;;;;9179696;19;20017;-66
2024/02/26 04:52:06;;;;;;;11.07;5.30;;;5.70;84.70;;;;;;9179355;19;20046;-67
2024/02/26 04:55:14;;;;;;;7.28;4.72;;;5.80;84.80;;;;;;9176226;19;20022;-67
2024/02/26 04:58:22;;;;;;;7.53;5.20;;;5.80;84.70;;;;;;9178458;19;20046;-66
2024/02/26 05:01:29;;;;;;;8.00;5.03;;;5.80;84.70;;;;;;9179399;19;20025;-66
2024/02/26 05:04:35;;;;;;;8.63;5.32;;;5.70;84.70;;;;;;9179633;19;21337;-67
2024/02/26 05:07:43;;;;;;;10.65;5.78;;;5.80;84.80;;;;;;9179807;19;20033;-67
2024/02/26 05:10:49;;;;;;;9.25;5.55;;;5.80;84.80;;;;;;9179164;19;20359;-66
2024/02/26 05:13:59;;;;;;;9.05;6.13;;;5.80;84.80;;;;;;9179462;19;20030;-67
2024/02/26 05:17:05;;;;;;;9.52;6.35;;;5.80;84.80;;;;;;9177655;19;20015;-67
2024/02/26 05:20:13;;;;;;;10.95;5.85;;;5.80;84.80;;;;;;9179215;19;20011;-67
2024/02/26 05:23:19;;;;;;;13.75;6.47;;;5.80;84.80;;;;;;9179292;19;20509;-67
2024/02/26 05:26:30;;;;;;;8.95;5.93;;;5.80;84.80;;;;;;9179606;19;20018;-66
2024/02/26 05:29:38;;;;;;;10.60;6.57;;;5.80;84.80;;;;;;9176279;19;20711;-67
2024/02/26 05:32:45;;;;;;;11.10;6.80;;;5.80;84.80;;;;;;9179453;19;20026;-67
2024/02/26 05:35:51;;;;;;;10.20;6.90;;;5.80;84.80;;;;;;9179698;19;20026;-66
2024/02/26 05:38:58;;;;;;;10.45;7.13;;;5.80;84.80;;;;;;9176972;19;20015;-67
2024/02/26 05:42:04;;;;;;;14.07;8.32;;;5.80;84.80;;;;;;9178776;19;20349;-66
2024/02/26 05:45:14;;;;;;;14.65;8.15;;;5.80;84.80;;;;;;9178138;19;20364;-67
2024/02/26 05:48:20;;;;;;;14.35;8.18;;;5.90;84.90;;;;;;9178828;19;20014;-67
2024/02/26 05:51:27;;;;;;;13.00;8.25;;;5.80;84.80;;;;;;9178580;19;20026;-66
2024/02/26 05:54:33;;;;;;;15.90;8.30;;;5.80;84.90;;;;;;9176849;19;20014;-67
2024/02/26 05:57:40;;;;;;;12.15;8.10;;;5.80;84.80;;;;;;9173844;19;20356;-67
2024/02/26 06:00:49;;;;;;;16.20;9.27;;;5.80;84.90;;;;;;9178303;19;20090;-67
2024/02/26 06:03:56;;;;;;;16.00;8.43;;;5.90;84.90;;;;;;9177699;19;20026;-66
2024/02/26 06:07:02;;;;;;;14.80;7.80;;;5.90;84.90;;;;;;9179747;19;20018;-67
2024/02/26 06:10:10;;;;;;;14.85;8.90;;;5.90;84.90;;;;;;9176115;19;20022;-67
2024/02/26 06:13:16;;;;;;;16.25;9.27;;;5.90;84.80;;;;;;9177749;19;20014;-67
2024/02/26 06:16:26;;;;;;;21.75;8.90;;;5.90;84.80;;;;;;9177543;19;20019;-66
2024/02/26 06:19:31;;;;;;;13.93;8.65;;;5.90;84.80;;;;;;9177489;19;20011;-66
2024/02/26 06:22:39;;;;;;;15.35;9.38;;;5.90;84.80;;;;;;9178371;19;20014;-67
2024/02/26 06:25:45;;;;;;;17.27;9.10;;;5.90;84.90;;;;;;9176522;19;20010;-66
2024/02/26 06:28:54;;;;;;;16.15;8.82;;;5.90;84.90;;;;;;9175558;19;20022;-67
2024/02/26 06:32:02;;;;;;;15.05;8.95;;;5.90;84.90;;;;;;9178196;19;20022;-66
2024/02/26 06:35:11;;;;;;;17.27;9.80;;;5.90;84.90;;;;;;9176071;19;20021;-67
2024/02/26 06:38:18;;;;;;;22.02;10.32;;;5.90;85.00;;;;;;9175473;19;20011;-67
2024/02/26 06:41:27;;;;;;;16.88;10.15;;;5.90;85.00;;;;;;9177122;19;20018;-67
2024/02/26 06:44:34;;;;;;;17.45;10.23;;;5.90;84.90;;;;;;9176173;19;20006;-67
2024/02/26 06:47:47;;;;;;;18.00;9.50;;;5.90;84.90;;;;;;9174534;19;20011;-67
2024/02/26 06:50:52;;;;;;;16.27;9.38;;;5.90;84.90;;;;;;9176451;19;20059;-67
2024/02/26 06:54:01;;;;;;;15.85;8.82;;;5.90;84.90;;;;;;9176730;19;20023;-67
2024/02/26 06:57:07;;;;;;;16.55;9.40;;;6.00;85.00;;;;;;9170713;19;20011;-66
2024/02/26 07:00:16;;;;;;;25.65;10.10;;;6.00;85.00;;;;;;9174381;19;20026;-67
2024/02/26 07:03:25;;;;;;;20.70;11.15;;;5.90;85.00;;;;;;9176438;19;20014;-67
2024/02/26 07:06:33;;;;;;;18.13;10.02;;;5.90;85.00;;;;;;9173456;19;20029;-67
2024/02/26 07:09:38;;;;;;;17.70;10.20;;;5.90;85.00;;;;;;9171878;19;20025;-67
2024/02/26 07:12:46;;;;;;;19.17;10.27;;;5.90;85.00;;;;;;9173225;19;20019;-67
2024/02/26 07:15:51;;;;;;;16.88;9.82;;;5.90;85.00;;;;;;9173555;19;20455;-67
2024/02/26 07:19:02;;;;;;;20.58;10.20;;;6.00;85.10;;;;;;9171811;19;20517;-67
2024/02/26 07:22:08;;;;;;;18.98;10.15;;;5.90;85.00;;;;;;9173589;19;20047;-67
2024/02/26 07:25:16;;;;;;;15.18;8.95;;;5.90;85.00;;;;;;9173256;19;20380;-67
2024/02/26 07:28:21;;;;;;;14.70;8.95;;;5.90;85.00;;;;;;9174523;19;20031;-67
2024/02/26 07:31:29;;;;;;;20.25;9.60;;;5.90;85.10;;;;;;9172130;19;20518;-67
2024/02/26 07:34:41;;;;;;;16.17;9.45;;;5.90;85.10;;;;;;9168028;19;20086;-67
2024/02/26 07:37:51;;;;;;;19.48;9.60;;;5.90;85.00;;;;;;9170854;19;20029;-67
2024/02/26 07:40:56;;;;;;;16.15;8.93;;;5.90;85.10;;;;;;9183816;19;20021;-68
2024/02/26 07:44:09;;;;;;;15.43;8.30;;;5.90;85.00;;;;;;9182734;19;20022;-67
2024/02/26 07:47:15;;;;;;;14.07;8.38;;;5.90;85.00;;;;;;9184601;19;20506;-66
2024/02/26 07:50:25;;;;;;;14.40;8.45;;;5.90;85.30;;;;;;9180333;19;20019;-67
2024/02/26 07:53:31;;;;;;;13.35;7.88;;;6.00;85.10;;;;;;9183223;19;20019;-67
2024/02/26 07:56:38;;;;;;;17.02;9.18;;;5.90;85.10;;;;;;9179840;19;20025;-67
2024/02/26 07:59:44;;;;;;;15.95;8.75;;;5.90;85.10;;;;;;9182943;19;20449;-67
2024/02/26 08:02:52;;;;;;;15.27;8.65;;;5.90;85.10;;;;;;9184045;19;20031;-67
2024/02/26 08:06:00;;;;;;;16.65;9.30;;;5.90;85.10;;;;;;9182355;19;20015;-66
2024/02/26 08:09:08;;;;;;;16.08;8.98;;;6.00;85.30;;;;;;9182394;19;20494;-66
2024/02/26 08:12:13;;;;;;;16.98;9.30;;;5.90;85.20;;;;;;9184811;19;20762;-66
2024/02/26 08:15:21;;;;;;;18.10;10.02;;;5.90;85.20;;;;;;9183039;19;20018;-66
2024/02/26 08:18:27;;;;;;;19.90;10.02;;;6.00;85.30;;;;;;9184356;19;20380;-66
2024/02/26 08:21:37;;;;;;;22.05;10.52;;;6.00;85.30;;;;;;9183431;19;20336;-67
2024/02/26 08:24:42;;;;;;;16.60;9.07;;;6.00;85.20;;;;;;9182062;19;20010;-66
2024/02/26 08:27:50;;;;;;;18.20;9.63;;;6.00;85.30;;;;;;9181376;19;20017;-66
2024/02/26 08:30:55;;;;;;;19.90;10.50;;;6.00;85.30;;;;;;9179948;19;20014;-66
2024/02/26 08:34:03;;;;;;;20.98;11.10;;;6.00;85.30;;;;;;9182130;19;20356;-66
2024/02/26 08:37:11;;;;;;;18.95;10.18;;;6.10;85.40;;;;;;9180001;19;20015;-67
2024/02/26 08:40:19;;;;;;;26.15;10.63;;;6.10;85.40;;;;;;9181853;19;20137;-67
2024/02/26 08:43:25;;;;;;;20.83;11.50;;;6.10;85.40;;;;;;9182115;19;20023;-66
2024/02/26 08:46:32;;;;;;;21.25;11.25;;;6.10;85.30;;;;;;9180748;19;20483;-67
2024/02/26 08:49:38;;;;;;;23.35;11.32;;;6.10;85.30;;;;;;9179653;19;20046;-67
2024/02/26 08:52:50;;;;;;;23.63;11.77;;;6.20;85.40;;;;;;9181516;19;20491;-66
2024/02/26 08:55:56;;;;;;;23.02;12.40;;;6.20;85.30;;;;;;9177359;19;20007;-67
2024/02/26 08:59:03;;;;;;;23.52;11.75;;;6.20;85.40;;;;;;9177731;19;20376;-67
2024/02/26 09:02:11;;;;;;;23.17;11.65;;;6.20;85.40;;;;;;9179519;19;20081;-67
2024/02/26 09:05:18;;;;;;;24.85;11.00;;;6.30;85.40;;;;;;9179647;19;20021;-66
2024/02/26 09:08:26;;;;;;;23.05;12.43;;;6.30;86.00;;;;;;9179196;19;20014;-67
2024/02/26 09:11:34;;;;;;;20.75;10.88;;;6.30;85.40;;;;;;9177150;19;20021;-67
2024/02/26 09:14:39;;;;;;;22.10;11.25;;;6.30;85.40;;;;;;9178469;19;20032;-67
2024/02/26 09:17:49;;;;;;;21.70;11.05;;;6.30;85.40;;;;;;9178193;19;20019;-67
2024/02/26 09:20:55;;;;;;;20.88;10.90;;;6.40;85.40;;;;;;9179781;19;20010;-67
2024/02/26 09:24:07;;;;;;;20.30;10.13;;;6.40;85.40;;;;;;9178598;19;20495;-67
2024/02/26 09:27:12;;;;;;;24.80;11.80;;;6.40;85.40;;;;;;9179358;19;20674;-67
2024/02/26 09:30:20;;;;;;;22.13;10.70;;;6.40;85.40;;;;;;9174983;19;20021;-67
2024/02/26 09:33:25;;;;;;;21.60;12.13;;;6.40;85.40;;;;;;9179032;19;20009;-67
2024/02/26 09:36:33;;;;;;;21.10;11.00;;;6.40;85.40;;;;;;9179670;19;20030;-67
2024/02/26 09:39:56;;;;;;;19.95;10.38;;;6.50;85.40;;;;;;9177194;19;20022;-67
2024/02/26 09:43:07;;;;;;;22.23;11.05;;;6.50;85.40;;;;;;9176126;19;20022;-67
2024/02/26 09:46:13;;;;;;;23.80;11.18;;;6.50;85.30;;;;;;9170695;19;20018;-67
2024/02/26 09:49:24;;;;;;;25.15;11.38;;;6.50;85.40;;;;;;9177989;19;20018;-67
2024/02/26 09:52:33;;;;;;;20.52;10.52;;;6.50;85.30;;;;;;9175269;19;20078;-67
2024/02/26 09:55:44;;;;;;;20.30;10.70;;;6.50;85.30;;;;;;9172415;19;20018;-67
2024/02/26 09:58:53;;;;;;;19.40;10.32;;;6.60;85.40;;;;;;9176315;19;20017;-67
2024/02/26 10:02:02;;;;;;;19.67;10.48;;;6.60;85.40;;;;;;9175936;19;20026;-67
2024/02/26 10:05:12;;;;;;;17.33;8.95;;;6.60;85.40;;;;;;9177144;19;20015;-67
2024/02/26 10:08:22;;;;;;;19.35;9.18;;;6.60;85.30;;;;;;9175865;19;20109;-67
2024/02/26 10:11:31;;;;;;;16.63;9.70;;;6.60;85.30;;;;;;9173562;19;20041;-67
2024/02/26 10:14:42;;;;;;;17.17;9.00;;;6.70;85.30;;;;;;9176788;19;20010;-67
2024/02/26 10:17:48;;;;;;;15.80;8.95;;;6.70;85.30;;;;;;9176747;19;20500;-67
2024/02/26 10:21:03;;;;;;;17.08;8.93;;;6.70;85.30;;;;;;9175012;19;20010;-67
2024/02/26 10:24:16;;;;;;;15.48;8.43;;;6.70;85.30;;;;;;9176507;19;20062;-67
2024/02/26 10:27:26;;;;;;;15.32;8.27;;;6.70;85.40;;;;;;9175360;19;20021;-67
2024/02/26 10:30:31;;;;;;;15.15;7.13;;;6.70;85.40;;;;;;9174217;19;20483;-67
2024/02/26 10:33:40;;;;;;;13.45;7.75;;;6.70;85.30;;;;;;9173979;19;20015;-67
2024/02/26 10:36:48;;;;;;;14.07;8.02;;;6.80;85.40;;;;;;9173188;19;20022;-67
2024/02/26 10:40:00;;;;;;;15.50;8.05;;;6.80;85.40;;;;;;9175950;19;20486;-67
2024/02/26 10:43:09;;;;;;;14.45;7.75;;;6.80;85.40;;;;;;9173411;19;20081;-67
2024/02/26 10:46:17;;;;;;;15.98;7.50;;;6.80;85.40;;;;;;9175707;19;20014;-67
2024/02/26 10:49:23;;;;;;;11.23;7.25;;;6.80;85.40;;;;;;9176323;19;20014;-67
2024/02/26 10:52:34;;;;;;;12.10;7.70;;;6.90;85.40;;;;;;9174271;19;20669;-67
2024/02/26 10:55:41;;;;;;;10.50;6.28;;;6.90;85.40;;;;;;9169297;19;20645;-67
2024/02/26 10:58:51;;;;;;;11.18;7.07;;;6.90;85.40;;;;;;9175206;19;20129;-67
2024/02/26 11:01:57;;;;;;;16.15;8.00;;;6.90;85.40;;;;;;9175354;19;20014;-67
2024/02/26 11:05:06;;;;;;;14.48;6.82;;;6.90;85.40;;;;;;9175784;19;20017;-67
2024/02/26 11:08:14;;;;;;;11.27;6.13;;;6.90;85.30;;;;;;9174886;19;20051;-67
2024/02/26 11:11:22;;;;;;;17.27;7.22;;;7.00;85.40;;;;;;9174940;19;20023;-67
2024/02/26 11:14:32;;;;;;;11.95;6.63;;;7.00;85.30;;;;;;9182585;19;20010;-67
2024/02/26 11:17:42;;;;;;;11.90;6.28;;;7.00;85.30;;;;;;9183391;19;20018;-67
2024/02/26 11:20:49;;;;;;;10.38;6.00;;;7.00;85.40;;;;;;9182047;19;20475;-68
2024/02/26 11:23:57;;;;;;;10.30;6.25;;;7.00;85.30;;;;;;9185115;19;20007;-68
2024/02/26 11:27:05;;;;;;;11.30;6.57;;;7.00;85.50;;;;;;9184291;19;20038;-67
2024/02/26 11:30:17;;;;;;;9.77;5.95;;;7.00;85.50;;;;;;9182988;19;20015;-67
2024/02/26 11:33:23;;;;;;;11.40;6.38;;;7.00;85.30;;;;;;9181864;19;20086;-67
2024/02/26 11:36:31;;;;;;;14.00;7.15;;;7.00;85.30;;;;;;9180997;19;20033;-67
2024/02/26 11:39:38;;;;;;;10.90;6.45;;;7.00;85.30;;;;;;9183274;19;20777;-67
2024/02/26 11:42:47;;;;;;;12.82;6.40;;;7.10;85.30;;;;;;9182110;19;20045;-68
2024/02/26 11:46:00;;;;;;;9.95;6.30;;;7.10;85.30;;;;;;9181252;19;20007;-67
2024/02/26 11:49:34;;;;;;;10.93;5.93;;;7.10;85.30;;;;;;9182653;19;20053;-67
2024/02/26 11:52:40;;;;;;;12.50;6.80;;;7.10;85.30;;;;;;9179704;19;20628;-68
2024/02/26 11:55:48;;;;;;;13.10;6.35;;;7.10;85.30;;;;;;9178744;19;20013;-69
2024/02/26 11:59:02;;;;;;;10.05;5.93;;;7.10;85.30;;;;;;9183050;19;20025;-66
2024/02/26 12:02:12;;;;;;;12.55;6.03;;;7.10;85.40;;;;;;9182608;19;20476;-67
2024/02/26 12:05:19;;;;;;;11.25;6.53;;;7.10;85.30;;;;;;9181860;19;20030;-67
2024/02/26 12:08:28;;;;;;;10.98;6.15;;;7.10;85.30;;;;;;9180773;19;20471;-68
2024/02/26 12:11:33;;;;;;;12.85;6.75;;;7.20;85.40;;;;;;9178973;19;20101;-67
2024/02/26 12:14:42;;;;;;;10.95;6.18;;;7.20;85.40;;;;;;9182094;19;20509;-67
2024/02/26 12:17:53;;;;;;;12.25;6.70;;;7.20;85.40;;;;;;9181974;19;20715;-67
2024/02/26 12:21:02;;;;;;;13.07;7.47;;;7.20;85.40;;;;;;9180784;19;20019;-67
2024/02/26 12:24:15;;;;;;;11.93;6.55;;;7.20;85.40;;;;;;9179317;19;20019;-67
2024/02/26 12:27:23;;;;;;;11.32;6.50;;;7.30;85.40;;;;;;9179722;19;20011;-67
2024/02/26 12:30:30;;;;;;;11.40;7.03;;;7.30;86.00;;;;;;9178799;19;20720;-67
2024/02/26 12:33:43;;;;;;;13.10;7.05;;;7.30;85.40;;;;;;9177328;19;20018;-67
2024/02/26 12:36:49;;;;;;;11.90;5.88;;;7.30;85.30;;;;;;9178874;19;20093;-67
2024/02/26 12:39:56;;;;;;;11.38;6.47;;;7.40;85.40;;;;;;9179298;19;20002;-67
2024/02/26 12:43:02;;;;;;;16.13;6.25;;;7.40;85.40;;;;;;9177285;19;20029;-67
2024/02/26 12:46:15;;;;;;;9.98;6.07;;;7.40;85.30;;;;;;9175896;19;20017;-67
2024/02/26 12:49:25;;;;;;;14.52;6.03;;;7.40;85.30;;;;;;9175834;19;20655;-67
2024/02/26 12:52:34;;;;;;;12.18;6.00;;;7.50;85.40;;;;;;9177728;19;20481;-67
2024/02/26 12:55:40;;;;;;;10.70;5.93;;;7.50;85.30;;;;;;9174211;19;20770;-67
2024/02/26 12:58:48;;;;;;;12.70;6.20;;;7.50;85.30;;;;;;9178893;19;20007;-67
2024/02/26 13:01:54;;;;;;;10.70;5.88;;;7.50;85.20;;;;;;9177050;19;20054;-67
2024/02/26 13:05:05;;;;;;;10.20;6.05;;;7.50;85.20;;;;;;9176945;19;20290;-67
2024/02/26 13:08:11;;;;;;;12.13;5.78;;;7.60;85.20;;;;;;9178888;19;20021;-67
2024/02/26 13:11:18;;;;;;;9.93;6.30;;;7.50;85.20;;;;;;9170067;19;20006;-67
2024/02/26 13:14:24;;;;;;;11.20;5.88;;;7.60;85.10;;;;;;9178124;19;20025;-67
2024/02/26 13:17:34;;;;;;;10.10;5.95;;;7.60;85.10;;;;;;9177057;19;20019;-67
2024/02/26 13:20:43;;;;;;;9.70;5.97;;;7.60;85.10;;;;;;9177751;19;20019;-67
2024/02/26 13:23:54;;;;;;;8.85;6.00;;;7.60;85.10;;;;;;9177542;19;20011;-67
2024/02/26 13:27:00;;;;;;;10.52;6.32;;;7.60;85.10;;;;;;9177365;19;20014;-67
2024/02/26 13:30:13;;;;;;;10.10;5.72;;;7.60;85.00;;;;;;9176865;19;20014;-67
2024/02/26 13:33:18;;;;;;;10.90;6.35;;;7.60;85.00;;;;;;9176087;19;20409;-67
2024/02/26 13:36:29;;;;;;;7.82;5.32;;;7.60;85.60;;;;;;9175136;19;20017;-67
2024/02/26 13:39:34;;;;;;;8.73;5.60;;;7.60;84.90;;;;;;9177339;19;20018;-67
2024/02/26 13:42:48;;;;;;;9.43;6.05;;;7.60;84.90;;;;;;9176105;19;20013;-67
2024/02/26 13:45:53;;;;;;;10.73;6.32;;;7.60;84.90;;;;;;9174236;19;20117;-67
2024/02/26 13:49:01;;;;;;;10.98;6.00;;;7.60;84.80;;;;;;9177206;19;20014;-67
2024/02/26 13:52:09;;;;;;;9.18;5.90;;;7.60;84.80;;;;;;9177127;19;20059;-67
2024/02/26 13:55:17;;;;;;;11.55;6.28;;;7.60;84.90;;;;;;9172249;19;20014;-67
2024/02/26 13:58:23;;;;;;;9.57;6.10;;;7.60;84.80;;;;;;9176013;19;20011;-67
2024/02/26 14:01:33;;;;;;;12.85;6.13;;;7.70;84.90;;;;;;9177489;19;20026;-67
2024/02/26 14:04:39;;;;;;;9.25;5.57;;;7.70;84.80;;;;;;9178675;19;20042;-67
2024/02/26 14:07:49;;;;;;;9.52;5.95;;;7.70;85.40;;;;;;9177158;19;20018;-67
2024/02/26 14:10:57;;;;;;;10.65;6.20;;;7.70;84.80;;;;;;9176523;19;21137;-67
2024/02/26 14:14:05;;;;;;;10.40;6.30;;;7.70;84.80;;;;;;9175540;19;20014;-67
2024/02/26 14:17:12;;;;;;;12.77;5.90;;;7.70;84.70;;;;;;9174460;19;20029;-68
2024/02/26 14:20:20;;;;;;;10.57;6.43;;;7.80;84.80;;;;;;9174230;19;20019;-67
2024/02/26 14:23:28;;;;;;;10.05;6.45;;;7.80;84.70;;;;;;9173981;19;20029;-67
2024/02/26 14:26:36;;;;;;;9.68;6.13;;;7.80;84.70;;;;;;9175197;19;20014;-67
2024/02/26 14:29:43;;;;;;;10.00;5.95;;;7.80;84.70;;;;;;9176687;19;20026;-67
2024/02/26 14:32:50;;;;;;;11.68;6.25;;;7.80;85.30;;;;;;9175232;19;20522;-67
2024/02/26 14:35:56;;;;;;;10.32;6.22;;;7.80;84.60;;;;;;9176185;19;20023;-67
2024/02/26 14:39:10;;;;;;;9.23;6.00;;;7.90;84.70;;;;;;9175346;19;20010;-67
2024/02/26 14:42:17;;;;;;;9.57;5.68;;;7.90;84.70;;;;;;9173761;19;20018;-67
2024/02/26 14:45:25;;;;;;;9.70;5.70;;;7.90;84.60;;;;;;9173106;19;20021;-67
2024/02/26 14:48:31;;;;;;;8.77;5.85;;;7.90;84.50;;;;;;9174865;19;20014;-67
2024/02/26 14:51:39;;;;;;;11.93;6.47;;;7.90;84.50;;;;;;9176547;19;20015;-67
2024/02/26 14:54:48;;;;;;;8.90;5.55;;;7.90;84.50;;;;;;9173550;19;20023;-67
2024/02/26 14:57:56;;;;;;;9.18;5.53;;;8.00;84.40;;;;;;9169334;19;20379;-67
2024/02/26 15:01:01;;;;;;;9.15;6.05;;;7.90;84.40;;;;;;9174779;19;20022;-67
2024/02/26 15:04:09;;;;;;;10.20;6.72;;;8.00;84.40;;;;;;9174507;19;20006;-67
2024/02/26 15:07:14;;;;;;;12.57;6.07;;;8.00;84.40;;;;;;9173114;19;20018;-67
2024/02/26 15:10:26;;;;;;;12.63;6.78;;;8.00;84.40;;;;;;9175558;19;20256;-67
2024/02/26 15:13:31;;;;;;;10.15;6.65;;;8.00;84.40;;;;;;9172700;19;20014;-69
2024/02/26 15:16:40;;;;;;;11.10;6.10;;;8.00;84.30;;;;;;9148583;19;20681;-66
2024/02/26 15:19:46;;;;;;;9.93;6.03;;;8.00;84.90;;;;;;9144353;19;20466;-69
2024/02/26 15:22:53;;;;;;;10.75;6.38;;;8.00;84.30;;;;;;9151823;19;20101;-68
2024/02/26 15:26:03;;;;;;;11.15;6.22;;;8.00;84.30;;;;;;9159620;19;20014;-69
2024/02/26 15:29:11;;;;;;;10.70;6.25;;;8.00;84.20;;;;;;9171131;19;20014;-67
2024/02/26 15:32:16;;;;;;;12.55;6.20;;;8.00;84.20;;;;;;9170149;19;20392;-66
2024/02/26 15:35:24;;;;;;;9.85;5.60;;;8.00;84.20;;;;;;9171282;19;20021;-67
2024/02/26 15:38:30;;;;;;;9.90;5.57;;;7.90;84.20;;;;;;9170322;19;20543;-68
2024/02/26 15:41:40;;;;;;;9.88;6.43;;;7.90;84.20;;;;;;9172832;19;20025;-67
2024/02/26 15:44:46;;;;;;;11.85;6.57;;;7.90;84.20;;;;;;9173045;19;20018;-67
2024/02/26 15:47:54;;;;;;;11.43;7.38;;;7.90;84.10;;;;;;9172148;19;20018;-66
2024/02/26 15:51:00;;;;;;;13.95;6.45;;;7.90;84.20;;;;;;9172887;19;20011;-67
2024/02/26 15:54:07;;;;;;;10.27;6.15;;;7.90;84.20;;;;;;9169607;19;20007;-67
2024/02/26 15:57:17;;;;;;;11.35;7.13;;;7.90;84.10;;;;;;9168202;19;20050;-67
2024/02/26 16:00:24;;;;;;;11.15;7.13;;;7.90;84.10;;;;;;9175893;19;20015;-67
2024/02/26 16:03:30;;;;;;;9.05;5.97;;;7.90;84.10;;;;;;9181154;19;20129;-67
2024/02/26 16:06:42;;;;;;;13.85;7.10;;;7.90;84.70;;;;;;9180332;19;20443;-67
2024/02/26 16:09:53;;;;;;;13.65;7.70;;;7.80;84.00;;;;;;9179366;19;20050;-67
2024/02/26 16:13:04;;;;;;;13.32;7.18;;;7.80;84.00;;;;;;9177842;19;20010;-67
2024/02/26 16:16:15;;;;;;;12.30;7.18;;;7.80;84.10;;;;;;9181232;19;20109;-66
2024/02/26 16:19:23;;;;;;;14.32;8.18;;;7.80;84.00;;;;;;9178560;19;20471;-67